Great Ocean — 3FDA5 — position and weather

sailwx.info

Track history (hours):
 
Tides and Currents Weather Stations Pressure Air Temp Water Temp Dewpoint Dewpoint Depression Visibility Wind Speed Wind Dir Waves Ship Positions

Great Ocean

Last reported at 2015-Aug-27 01:32 UTC. Time now 2015-Sep-04 18:49 UTC.
Position N 32°18' E 123°21'.
Warning: this ship's position is 8 days out of date.

Length 180 m; draft 6.3 m.

Type: Cargo ship. MMSI: 371452000.

Date/timePositionNaut miles runAvg speedWind from/ knotsBaromVisibWave heightAir tempDewpointWater temp
2015-Aug-27 01:32N 32°18' E 123°21'1313.8
2015-Aug-27 00:33N 32°06' E 123°13'1413.7
2015-Aug-26 23:33N 31°53' E 123°10'1413.7
2015-Aug-26 22:33N 31°40' E 123°04'1413.5
2015-Aug-26 21:33N 31°28' E 122°57'4 4.0
2015-Aug-26 20:31N 31°24' E 122°55'29 0.7
2015-Aug-25 04:31N 31°05' E 122°29'1111.8
2015-Aug-25 03:34N 31°07' E 122°16'1010.2
2015-Aug-25 02:33N 31°13' E 122°07'1514.7
2015-Aug-25 01:33N 31°17' E 121°50'1313.0
2015-Aug-25 00:33N 31°22' E 121°36'1111.1
2015-Aug-24 23:33N 31°29' E 121°26'1010.2
2015-Aug-24 22:33N 31°36' E 121°17'1010.2
2015-Aug-24 21:33N 31°43' E 121°08'0 0.1
2015-Aug-24 20:33N 31°43' E 121°08'0 0.1
2015-Aug-24 19:32N 31°43' E 121°08'0 0.0
2015-Aug-24 18:28N 31°43' E 121°08'0 0.0
2015-Aug-24 17:33N 31°43' E 121°08'0 0.1
2015-Aug-24 16:33N 31°43' E 121°08'0 0.0
2015-Aug-24 15:33N 31°43' E 121°08'8 7.6
2015-Aug-24 14:34N 31°47' E 121°00'4110.1
2015-Aug-24 10:29N 31°56' E 120°13'1313.7
2015-Aug-24 09:31N 32°00' E 119°58'17 0.3
2015-Aug-22 05:32N 31°58' E 120°18'8 7.9
2015-Aug-22 04:33N 31°59' E 120°27'8 4.0
2015-Aug-22 02:33N 31°60' E 120°37'10 9.9
2015-Aug-22 01:34N 32°00' E 120°48'1010.2
2015-Aug-22 00:33N 31°51' E 120°54'9 9.0
2015-Aug-21 23:33N 31°46' E 121°03'1111.4
2015-Aug-21 22:34N 31°39' E 121°13'1211.9
2015-Aug-21 21:34N 31°31' E 121°23'1010.0
2015-Aug-21 20:33N 31°25' E 121°32'1010.2
2015-Aug-21 19:34N 31°20' E 121°43'1010.3
2015-Aug-21 18:33N 31°16' E 121°54'1212.0
2015-Aug-21 17:33N 31°13' E 122°07'1312.7
2015-Aug-21 16:33N 31°06' E 122°20'459 9.3
2015-Aug-19 15:27N 23°45' E 119°56'  
Track history (hours):
 
Tides and Currents Weather Stations Pressure Air Temp Water Temp Dewpoint Dewpoint Depression Visibility Wind Speed Wind Dir Waves Ship Positions

Great Ocean

Last reported at 2015-Aug-27 01:32 UTC. Time now 2015-Sep-04 18:49 UTC.
Position N 32°18' E 123°21'.
Warning: this ship's position is 8 days out of date.

Length 180 m; draft 6.3 m.

Type: Cargo ship. MMSI: 371452000.

Date/timePositionNaut miles runAvg speedWind from/ knotsBaromVisibWave heightAir tempDewpointWater temp
2015-Aug-27 01:32N 32°18' E 123°21'1313.8
2015-Aug-27 00:33N 32°06' E 123°13'1413.7
2015-Aug-26 23:33N 31°53' E 123°10'1413.7
2015-Aug-26 22:33N 31°40' E 123°04'1413.5
2015-Aug-26 21:33N 31°28' E 122°57'4 4.0
2015-Aug-26 20:31N 31°24' E 122°55'29 0.7
2015-Aug-25 04:31N 31°05' E 122°29'1111.8
2015-Aug-25 03:34N 31°07' E 122°16'1010.2
2015-Aug-25 02:33N 31°13' E 122°07'1514.7
2015-Aug-25 01:33N 31°17' E 121°50'1313.0
2015-Aug-25 00:33N 31°22' E 121°36'1111.1
2015-Aug-24 23:33N 31°29' E 121°26'1010.2
2015-Aug-24 22:33N 31°36' E 121°17'1010.2
2015-Aug-24 21:33N 31°43' E 121°08'0 0.1
2015-Aug-24 20:33N 31°43' E 121°08'0 0.1
2015-Aug-24 19:32N 31°43' E 121°08'0 0.0
2015-Aug-24 18:28N 31°43' E 121°08'0 0.0
2015-Aug-24 17:33N 31°43' E 121°08'0 0.1
2015-Aug-24 16:33N 31°43' E 121°08'0 0.0
2015-Aug-24 15:33N 31°43' E 121°08'8 7.6
2015-Aug-24 14:34N 31°47' E 121°00'4110.1
2015-Aug-24 10:29N 31°56' E 120°13'1313.7
2015-Aug-24 09:31N 32°00' E 119°58'17 0.3
2015-Aug-22 05:32N 31°58' E 120°18'8 7.9
2015-Aug-22 04:33N 31°59' E 120°27'8 4.0
2015-Aug-22 02:33N 31°60' E 120°37'10 9.9
2015-Aug-22 01:34N 32°00' E 120°48'1010.2
2015-Aug-22 00:33N 31°51' E 120°54'9 9.0
2015-Aug-21 23:33N 31°46' E 121°03'1111.4
2015-Aug-21 22:34N 31°39' E 121°13'1211.9
2015-Aug-21 21:34N 31°31' E 121°23'1010.0
2015-Aug-21 20:33N 31°25' E 121°32'1010.2
2015-Aug-21 19:34N 31°20' E 121°43'1010.3
2015-Aug-21 18:33N 31°16' E 121°54'1212.0
2015-Aug-21 17:33N 31°13' E 122°07'1312.7
2015-Aug-21 16:33N 31°06' E 122°20'459 9.3
2015-Aug-19 15:27N 23°45' E 119°56'  

Dump ship's entire track history